createdAt,value
2022-10-18T00:01:20.769Z,71.54
2022-10-18T00:03:47.618Z,71.61
2022-10-18T00:06:14.571Z,72.41
2022-10-18T00:08:41.338Z,72.56
2022-10-18T00:11:08.234Z,72.94
2022-10-18T00:13:35.713Z,73.08
2022-10-18T00:16:05.106Z,73.25
2022-10-18T00:18:32.187Z,73.33
2022-10-18T00:21:06.999Z,73.77
2022-10-18T00:23:35.144Z,73.36
2022-10-18T00:26:07.867Z,72.87
2022-10-18T00:28:38.863Z,72.78
2022-10-18T00:31:15.051Z,73.38
2022-10-18T00:33:43.144Z,73.19
2022-10-18T00:36:10.735Z,73.70
2022-10-18T00:38:38.318Z,74.18
2022-10-18T00:41:07.054Z,74.46
2022-10-18T00:43:50.818Z,74.56
2022-10-18T00:46:17.535Z,74.49
2022-10-18T00:48:44.603Z,74.60
2022-10-18T00:51:15.287Z,74.91
2022-10-18T00:53:42.879Z,75.50
2022-10-18T00:56:09.943Z,74.23
2022-10-18T00:58:36.944Z,74.21
2022-10-18T01:01:03.861Z,73.98
2022-10-18T01:03:31.033Z,73.90
2022-10-18T01:05:57.810Z,73.91
2022-10-18T01:08:40.898Z,74.08
2022-10-18T01:11:24.452Z,73.83
2022-10-18T01:14:38.864Z,74.64
2022-10-18T01:17:08.431Z,74.30
2022-10-18T01:20:09.913Z,75.10
2022-10-18T01:22:42.562Z,74.66
2022-10-18T01:25:36.691Z,75.40
2022-10-18T01:28:32.075Z,75.32
2022-10-18T01:31:24.655Z,75.18
2022-10-18T01:33:59.745Z,75.56
2022-10-18T01:36:33.194Z,75.73
2022-10-18T01:39:06.270Z,75.83
2022-10-18T01:41:37.156Z,76.54
2022-10-18T01:44:07.002Z,77.84
2022-10-18T01:46:33.910Z,76.72
2022-10-18T01:49:00.638Z,77.12
2022-10-18T01:51:32.168Z,77.03
2022-10-18T01:53:59.642Z,76.79
2022-10-18T01:57:12.965Z,77.49
2022-10-18T02:00:16.711Z,77.22
2022-10-18T02:02:43.434Z,75.80
2022-10-18T02:05:40.948Z,75.84
2022-10-18T02:08:33.803Z,75.76
2022-10-18T02:11:08.971Z,75.26
2022-10-18T02:13:40.563Z,75.54
2022-10-18T02:16:14.222Z,76.07
2022-10-18T02:18:45.334Z,76.18
2022-10-18T02:21:15.927Z,76.61
2022-10-18T02:23:45.184Z,77.01
2022-10-18T02:26:12.332Z,77.51
2022-10-18T02:28:40.370Z,77.48
2022-10-18T02:31:14.022Z,77.34
2022-10-18T02:33:55.843Z,77.51
2022-10-18T02:36:28.928Z,77.35
2022-10-18T02:39:02.848Z,77.64
2022-10-18T02:41:31.539Z,77.52
2022-10-18T02:43:58.579Z,77.51
2022-10-18T02:48:57.184Z,77.27
2022-10-18T02:51:23.992Z,77.37
2022-10-18T02:53:50.917Z,77.76
2022-10-18T02:56:17.837Z,77.47
2022-10-18T02:58:44.567Z,77.19
2022-10-18T03:01:11.394Z,76.85
2022-10-18T03:03:38.182Z,76.67
2022-10-18T03:06:05.323Z,76.80
2022-10-18T03:08:32.217Z,76.82
2022-10-18T03:10:58.998Z,76.97
2022-10-18T03:13:25.828Z,77.08
2022-10-18T03:15:52.583Z,77.37
2022-10-18T03:18:19.467Z,77.94
2022-10-18T03:20:46.296Z,78.36
2022-10-18T03:23:13.101Z,78.61
2022-10-18T03:25:41.692Z,78.94
2022-10-18T03:28:11.323Z,79.27
2022-10-18T03:30:39.023Z,79.38
2022-10-18T03:33:06.755Z,79.43
2022-10-18T03:35:33.526Z,79.61
2022-10-18T03:38:00.348Z,79.63
2022-10-18T03:40:27.200Z,79.55
2022-10-18T03:42:53.964Z,79.70
2022-10-18T03:45:20.721Z,79.72
2022-10-18T03:47:47.482Z,79.68
2022-10-18T03:50:14.355Z,79.17
2022-10-18T03:52:41.172Z,78.44
2022-10-18T03:55:08.042Z,78.71
2022-10-18T03:57:34.809Z,79.10
2022-10-18T04:00:01.853Z,79.40
2022-10-18T04:02:38.918Z,79.10
2022-10-18T04:05:06.314Z,78.97
2022-10-18T04:07:33.993Z,78.90
2022-10-18T04:10:00.930Z,78.83
2022-10-18T04:12:27.745Z,79.15
2022-10-18T04:14:55.696Z,79.25
2022-10-18T04:17:22.622Z,79.36
2022-10-18T04:19:49.515Z,79.76
2022-10-18T04:22:16.326Z,79.51
2022-10-18T04:24:43.089Z,79.42
2022-10-18T04:27:09.979Z,79.47
2022-10-18T04:29:36.716Z,79.16
2022-10-18T04:32:03.587Z,79.24
2022-10-18T04:34:30.455Z,79.41
2022-10-18T04:36:57.323Z,79.67
2022-10-18T04:39:24.114Z,79.84
2022-10-18T04:41:50.866Z,79.79
2022-10-18T04:44:17.613Z,79.88
2022-10-18T04:46:44.394Z,79.45
2022-10-18T04:49:11.126Z,78.99
2022-10-18T04:51:38.424Z,78.69
2022-10-18T04:54:05.735Z,78.52
2022-10-18T04:56:32.828Z,78.42
2022-10-18T04:58:59.981Z,78.57
2022-10-18T05:01:30.841Z,78.36
2022-10-18T05:03:59.155Z,78.32
2022-10-18T05:06:25.982Z,77.93
2022-10-18T05:08:52.719Z,77.56
2022-10-18T05:11:19.489Z,77.59
2022-10-18T05:13:48.598Z,77.35
2022-10-18T05:16:17.883Z,77.25
2022-10-18T05:18:44.675Z,77.31
2022-10-18T05:21:12.542Z,77.34
2022-10-18T05:23:39.504Z,77.50
2022-10-18T05:26:07.319Z,77.33
2022-10-18T05:28:40.119Z,77.42
2022-10-18T05:31:09.936Z,77.51
2022-10-18T05:33:36.706Z,77.46
2022-10-18T05:36:04.067Z,77.38
2022-10-18T05:38:33.154Z,77.40
2022-10-18T05:41:00.192Z,77.66
2022-10-18T05:43:32.711Z,77.81
2022-10-18T05:45:59.476Z,77.76
2022-10-18T05:48:26.712Z,77.64
2022-10-18T05:50:53.627Z,77.62
2022-10-18T05:53:37.187Z,77.58
2022-10-18T05:56:08.129Z,77.52
2022-10-18T05:58:35.239Z,77.84
2022-10-18T06:01:03.773Z,77.93
2022-10-18T06:03:31.009Z,78.21
2022-10-18T06:06:07.077Z,79.20
2022-10-18T06:08:34.836Z,79.13
2022-10-18T06:11:10.642Z,79.49
2022-10-18T06:13:45.018Z,79.79
2022-10-18T06:16:12.853Z,80.29
2022-10-18T06:18:39.983Z,80.78
2022-10-18T06:21:07.512Z,81.02
2022-10-18T06:23:34.969Z,81.16
2022-10-18T06:26:04.181Z,81.28
2022-10-18T06:28:31.306Z,81.26
2022-10-18T06:30:58.450Z,81.40
2022-10-18T06:33:25.552Z,81.52
2022-10-18T06:36:04.173Z,81.72
2022-10-18T06:38:31.488Z,81.24
2022-10-18T06:40:59.143Z,80.79
2022-10-18T06:43:26.240Z,80.42
2022-10-18T06:45:53.485Z,80.27
2022-10-18T06:48:21.045Z,80.33
2022-10-18T06:50:57.162Z,80.41
2022-10-18T06:53:29.534Z,80.71
2022-10-18T06:56:03.551Z,81.31
2022-10-18T06:58:31.114Z,81.03
2022-10-18T07:00:58.546Z,81.34
2022-10-18T07:03:26.348Z,81.47
2022-10-18T07:05:53.128Z,81.53
2022-10-18T07:08:19.880Z,81.68
2022-10-18T07:10:53.549Z,81.83
2022-10-18T07:13:32.347Z,81.22
2022-10-18T07:16:11.692Z,81.27
2022-10-18T07:18:49.736Z,80.88
2022-10-18T07:21:21.514Z,80.90
2022-10-18T07:23:49.283Z,80.75
2022-10-18T07:26:19.922Z,81.00
2022-10-18T07:28:50.543Z,80.92
2022-10-18T07:31:17.901Z,80.91
2022-10-18T07:33:44.703Z,81.19
2022-10-18T07:36:13.049Z,81.14
2022-10-18T07:38:40.374Z,81.23
2022-10-18T07:41:08.940Z,81.14
2022-10-18T07:43:36.046Z,81.08
2022-10-18T07:46:05.760Z,80.83
2022-10-18T07:48:32.754Z,80.50
2022-10-18T07:51:00.910Z,80.22
2022-10-18T07:53:29.266Z,80.15
2022-10-18T07:56:07.152Z,80.27
2022-10-18T07:58:36.264Z,79.92
2022-10-18T08:01:07.551Z,79.84
2022-10-18T08:03:35.365Z,79.32
2022-10-18T08:06:02.574Z,78.89
2022-10-18T08:08:30.242Z,78.42
2022-10-18T08:11:03.501Z,77.66
2022-10-18T08:13:30.730Z,77.62
2022-10-18T08:16:01.910Z,77.77
2022-10-18T08:18:28.922Z,77.45
2022-10-18T08:20:55.674Z,77.38
2022-10-18T08:23:22.494Z,77.03
2022-10-18T08:25:49.242Z,77.00
2022-10-18T08:28:17.435Z,76.78
2022-10-18T08:30:44.263Z,76.81
2022-10-18T08:33:11.084Z,76.97
2022-10-18T08:35:37.995Z,76.94
2022-10-18T08:38:05.524Z,76.88
2022-10-18T08:40:35.035Z,76.90
2022-10-18T08:43:38.916Z,76.83
2022-10-18T08:46:05.844Z,76.74
2022-10-18T08:48:43.883Z,76.66
2022-10-18T08:51:27.423Z,76.26
2022-10-18T08:54:01.307Z,76.27
2022-10-18T08:56:28.114Z,76.05
2022-10-18T08:58:54.996Z,76.30
2022-10-18T09:01:37.190Z,75.83
2022-10-18T09:04:20.186Z,76.16
2022-10-18T09:06:52.510Z,75.10
2022-10-18T09:09:46.879Z,74.49
2022-10-18T09:12:21.104Z,74.38
2022-10-18T09:15:33.535Z,74.03
2022-10-18T09:18:34.964Z,73.84
2022-10-18T09:21:19.317Z,73.63
2022-10-18T09:23:54.158Z,73.63
2022-10-18T09:26:23.129Z,73.32
2022-10-18T09:29:27.659Z,72.99
2022-10-18T09:32:12.956Z,72.66
2022-10-18T09:35:05.987Z,72.63
2022-10-18T09:37:34.702Z,72.46
2022-10-18T09:40:19.412Z,72.35
2022-10-18T09:42:59.278Z,72.59
2022-10-18T09:45:37.945Z,72.37
2022-10-18T09:48:15.906Z,72.67
2022-10-18T09:51:08.171Z,72.72
2022-10-18T09:53:50.283Z,73.37
2022-10-18T09:56:30.033Z,74.06
2022-10-18T09:58:57.161Z,74.41
2022-10-18T10:01:29.795Z,74.33
2022-10-18T10:03:56.631Z,74.72
2022-10-18T10:06:30.723Z,74.71
2022-10-18T10:09:06.448Z,74.78
2022-10-18T10:11:47.562Z,75.20
2022-10-18T10:16:52.603Z,75.53
2022-10-18T10:19:24.247Z,75.80
2022-10-18T10:21:56.207Z,76.37
2022-10-18T10:24:34.447Z,76.76
2022-10-18T10:27:04.344Z,76.55
2022-10-18T10:30:01.498Z,76.67
2022-10-18T10:32:44.317Z,76.09
2022-10-18T10:35:42.101Z,76.27
2022-10-18T10:38:27.337Z,76.26
2022-10-18T10:40:54.452Z,76.22
2022-10-18T10:43:40.340Z,76.27
2022-10-18T10:46:13.178Z,76.47
2022-10-18T10:49:08.399Z,76.76
2022-10-18T10:51:43.712Z,76.81
2022-10-18T10:54:21.541Z,76.82
2022-10-18T10:56:59.297Z,77.09
2022-10-18T10:59:29.452Z,78.06
2022-10-18T11:02:11.886Z,79.66
2022-10-18T11:04:38.682Z,79.46
2022-10-18T11:07:46.674Z,80.70
2022-10-18T11:10:22.767Z,80.39
2022-10-18T11:13:01.579Z,80.39
2022-10-18T11:15:38.617Z,80.60
2022-10-18T11:18:20.960Z,81.08
2022-10-18T11:21:02.260Z,81.37
2022-10-18T11:23:32.794Z,81.80
2022-10-18T11:26:13.549Z,81.77
2022-10-18T11:29:14.659Z,82.09
2022-10-18T11:31:56.679Z,82.29
2022-10-18T11:34:47.398Z,81.74
2022-10-18T11:37:29.088Z,81.60
2022-10-18T11:40:10.215Z,81.47
2022-10-18T11:43:07.722Z,82.01
2022-10-18T11:45:51.171Z,81.62
2022-10-18T11:48:20.690Z,81.71
2022-10-18T11:51:29.676Z,82.41
2022-10-18T11:54:26.462Z,82.62
2022-10-18T11:57:02.457Z,82.24
2022-10-18T11:59:48.017Z,82.13
2022-10-18T12:02:45.671Z,82.57
2022-10-18T12:05:29.248Z,82.16
2022-10-18T12:07:58.747Z,82.37
2022-10-18T12:10:44.103Z,82.15
2022-10-18T12:13:25.628Z,82.17
2022-10-18T12:15:53.822Z,81.96
2022-10-18T12:18:23.594Z,81.93
2022-10-18T12:20:54.620Z,81.81
2022-10-18T12:23:35.184Z,81.78
2022-10-18T12:26:05.649Z,81.59
2022-10-18T12:28:47.864Z,81.89
2022-10-18T12:31:20.442Z,81.58
2022-10-18T12:33:53.129Z,81.40
2022-10-18T12:36:22.678Z,81.42
2022-10-18T12:38:56.530Z,81.53
2022-10-18T12:41:27.555Z,81.31
2022-10-18T12:44:01.596Z,81.25
2022-10-18T12:46:56.094Z,81.25
2022-10-18T12:49:39.039Z,81.02
2022-10-18T12:52:29.062Z,81.28
2022-10-18T12:55:16.788Z,81.58
2022-10-18T12:57:53.743Z,81.84
2022-10-18T13:00:29.625Z,82.12
2022-10-18T13:03:18.070Z,82.81
2022-10-18T13:05:55.995Z,82.58
2022-10-18T13:08:33.981Z,82.68
2022-10-18T13:11:09.671Z,82.95
2022-10-18T13:13:57.965Z,83.30
2022-10-18T13:16:36.426Z,83.46
2022-10-18T13:19:37.144Z,83.69
2022-10-18T13:22:25.668Z,83.78
2022-10-18T13:25:27.601Z,83.62
2022-10-18T13:27:54.432Z,83.00
2022-10-18T13:30:53.405Z,83.56
2022-10-18T13:33:31.518Z,83.15
2022-10-18T13:35:58.220Z,82.86
2022-10-18T13:38:42.567Z,82.37
2022-10-18T13:41:11.652Z,82.22
2022-10-18T13:43:54.076Z,82.23
2022-10-18T13:46:21.483Z,81.74
2022-10-18T13:49:00.193Z,81.82
2022-10-18T13:51:48.181Z,81.34
2022-10-18T13:54:26.737Z,81.29
2022-10-18T13:57:17.920Z,81.32
2022-10-18T13:59:44.667Z,80.45
2022-10-18T14:02:51.793Z,80.83
2022-10-18T14:05:54.471Z,81.15
2022-10-18T14:08:30.413Z,80.78
2022-10-18T14:11:18.954Z,80.95
2022-10-18T14:13:52.013Z,80.89
2022-10-18T14:16:24.884Z,80.69
2022-10-18T14:18:57.475Z,80.61
2022-10-18T14:21:31.434Z,80.32
2022-10-18T14:23:58.833Z,80.40
2022-10-18T14:26:29.003Z,80.43
2022-10-18T14:29:05.295Z,80.51
2022-10-18T14:31:33.049Z,80.27
2022-10-18T14:34:01.074Z,79.95
2022-10-18T14:36:34.189Z,79.76
2022-10-18T14:39:06.054Z,79.79
2022-10-18T14:41:40.811Z,79.91
2022-10-18T14:44:16.565Z,79.96
2022-10-18T14:46:47.273Z,79.82
2022-10-18T14:49:14.642Z,79.71
2022-10-18T14:51:43.528Z,79.39
2022-10-18T14:54:30.648Z,79.49
2022-10-18T14:57:00.548Z,79.32
2022-10-18T14:59:30.037Z,79.51
2022-10-18T15:02:12.729Z,79.35
2022-10-18T15:04:39.531Z,79.26
2022-10-18T15:07:07.914Z,79.31
2022-10-18T15:09:36.113Z,79.18
2022-10-18T15:12:05.808Z,79.50
2022-10-18T15:14:34.308Z,79.72
2022-10-18T15:17:26.127Z,79.82
2022-10-18T15:20:05.919Z,79.81
2022-10-18T15:22:34.053Z,79.56
2022-10-18T15:25:08.894Z,79.74
2022-10-18T15:27:38.952Z,79.53
2022-10-18T15:30:23.281Z,79.50
2022-10-18T15:33:01.725Z,79.82
2022-10-18T15:35:37.041Z,79.55
2022-10-18T15:38:17.138Z,79.31
2022-10-18T15:40:44.293Z,79.25
2022-10-18T15:43:23.492Z,79.34
2022-10-18T15:45:58.738Z,79.27
2022-10-18T15:48:40.567Z,79.38
2022-10-18T15:51:19.519Z,79.39
2022-10-18T15:53:49.315Z,79.18
2022-10-18T15:56:38.307Z,79.66
2022-10-18T15:59:20.806Z,79.66
2022-10-18T16:01:47.700Z,79.61
2022-10-18T16:04:23.775Z,79.51
2022-10-18T16:06:50.891Z,79.45
2022-10-18T16:09:19.978Z,79.50
2022-10-18T16:11:47.375Z,79.36
2022-10-18T16:14:14.134Z,79.33
2022-10-18T16:16:40.995Z,79.40
2022-10-18T16:19:08.414Z,79.63
2022-10-18T16:21:38.013Z,79.68
2022-10-18T16:24:06.091Z,79.40
2022-10-18T16:26:33.279Z,79.32
2022-10-18T16:29:00.953Z,78.85
2022-10-18T16:31:31.578Z,78.42
2022-10-18T16:33:59.292Z,78.62
2022-10-18T16:36:29.320Z,78.30
2022-10-18T16:38:57.477Z,78.63
2022-10-18T16:41:24.702Z,79.10
2022-10-18T16:43:51.544Z,78.97
2022-10-18T16:46:29.635Z,78.88
2022-10-18T16:48:57.256Z,78.73
2022-10-18T16:51:26.234Z,79.10
2022-10-18T16:53:56.416Z,78.95
2022-10-18T16:56:27.741Z,78.84
2022-10-18T16:58:55.213Z,78.53
2022-10-18T17:01:24.339Z,78.73
2022-10-18T17:03:55.418Z,78.53
2022-10-18T17:06:23.650Z,78.14
2022-10-18T17:08:51.559Z,77.83
2022-10-18T17:11:19.502Z,77.93
2022-10-18T17:13:46.315Z,78.26
2022-10-18T17:16:31.425Z,78.30
2022-10-18T17:19:01.106Z,78.01
2022-10-18T17:21:28.799Z,78.12
2022-10-18T17:23:55.945Z,78.08
2022-10-18T17:26:28.811Z,78.11
2022-10-18T17:29:05.477Z,78.54
2022-10-18T17:31:33.041Z,78.84
2022-10-18T17:34:03.935Z,79.09
2022-10-18T17:36:37.952Z,78.95
2022-10-18T17:39:05.642Z,78.69
2022-10-18T17:41:32.463Z,78.86
2022-10-18T17:43:59.174Z,79.01
2022-10-18T17:46:26.165Z,79.21
2022-10-18T17:48:53.838Z,79.33
2022-10-18T17:51:20.763Z,79.40
2022-10-18T17:53:47.761Z,79.35
2022-10-18T17:56:16.127Z,79.41
2022-10-18T17:58:47.092Z,79.56
2022-10-18T18:01:16.824Z,79.44
2022-10-18T18:03:44.578Z,79.54
2022-10-18T18:06:14.177Z,79.82
2022-10-18T18:08:40.946Z,79.79
2022-10-18T18:11:07.760Z,79.94
2022-10-18T18:13:36.142Z,80.01
2022-10-18T18:16:22.241Z,80.03
2022-10-18T18:18:51.048Z,80.07
2022-10-18T18:21:17.926Z,79.84
2022-10-18T18:23:45.495Z,79.73
2022-10-18T18:26:13.915Z,79.65
2022-10-18T18:28:40.781Z,79.75
2022-10-18T18:31:12.710Z,79.96
2022-10-18T18:33:39.546Z,80.43
2022-10-18T18:36:07.088Z,80.59
2022-10-18T18:38:35.187Z,80.78
2022-10-18T18:41:23.458Z,81.00
2022-10-18T18:44:03.465Z,81.20
2022-10-18T18:46:33.376Z,81.13
2022-10-18T18:49:00.789Z,80.97
2022-10-18T18:51:27.582Z,81.32
2022-10-18T18:53:54.898Z,81.44
2022-10-18T18:56:24.567Z,81.72
2022-10-18T18:58:52.551Z,82.33
2022-10-18T19:01:22.737Z,82.44
2022-10-18T19:03:51.680Z,82.35
2022-10-18T19:06:47.922Z,82.78
2022-10-18T19:09:22.077Z,82.46
2022-10-18T19:11:52.533Z,82.85
2022-10-18T19:14:20.053Z,82.95
2022-10-18T19:16:58.880Z,83.18
2022-10-18T19:19:28.698Z,83.04
2022-10-18T19:21:58.225Z,82.96
2022-10-18T19:24:27.323Z,82.95
2022-10-18T19:26:58.375Z,82.90
2022-10-18T19:29:27.968Z,83.07
2022-10-18T19:31:56.590Z,83.15
2022-10-18T19:34:25.312Z,83.35
2022-10-18T19:36:52.526Z,83.39
2022-10-18T19:39:22.087Z,83.25
2022-10-18T19:41:51.006Z,83.18
2022-10-18T19:44:19.309Z,83.45
2022-10-18T19:46:46.702Z,83.58
2022-10-18T19:49:13.535Z,83.50
2022-10-18T19:51:40.836Z,83.54
2022-10-18T19:54:07.845Z,83.52
2022-10-18T19:56:34.656Z,83.18
2022-10-18T19:59:01.626Z,83.15
2022-10-18T20:01:29.127Z,83.24
2022-10-18T20:03:56.070Z,82.90
2022-10-18T20:06:23.665Z,82.74
2022-10-18T20:08:50.946Z,82.93
2022-10-18T20:11:20.483Z,82.53
2022-10-18T20:13:47.834Z,82.35
2022-10-18T20:16:16.409Z,82.13
2022-10-18T20:18:43.462Z,81.77
2022-10-18T20:21:12.527Z,81.73
2022-10-18T20:23:40.616Z,81.63
2022-10-18T20:26:20.473Z,81.64
2022-10-18T20:28:49.228Z,81.78
2022-10-18T20:31:19.146Z,81.58
2022-10-18T20:33:47.428Z,81.32
2022-10-18T20:36:16.976Z,81.47
2022-10-18T20:38:45.766Z,81.67
2022-10-18T20:41:27.047Z,82.40
2022-10-18T20:43:58.163Z,82.43
2022-10-18T20:46:26.964Z,82.48
2022-10-18T20:48:54.571Z,82.79
2022-10-18T20:51:22.642Z,83.22
2022-10-18T20:53:50.330Z,83.40
2022-10-18T20:56:20.936Z,83.64
2022-10-18T20:58:49.815Z,83.66
2022-10-18T21:01:22.459Z,83.48
2022-10-18T21:03:51.308Z,83.25
2022-10-18T21:06:33.969Z,83.36
2022-10-18T21:09:07.361Z,83.44
2022-10-18T21:11:39.603Z,83.44
2022-10-18T21:14:11.102Z,83.17
2022-10-18T21:16:37.883Z,83.40
2022-10-18T21:19:11.103Z,83.53
2022-10-18T21:21:38.037Z,83.42
2022-10-18T21:24:07.769Z,83.56
2022-10-18T21:26:36.171Z,83.48
2022-10-18T21:29:04.484Z,83.50
2022-10-18T21:31:34.915Z,83.29
2022-10-18T21:34:06.898Z,83.16
2022-10-18T21:36:36.164Z,83.30
2022-10-18T21:39:09.125Z,83.23
2022-10-18T21:41:36.610Z,83.12
2022-10-18T21:46:59.837Z,83.22
2022-10-18T21:49:30.457Z,83.28
2022-10-18T21:51:58.340Z,83.11
2022-10-18T21:54:25.266Z,83.32
2022-10-18T21:56:52.126Z,83.09
2022-10-18T21:59:19.036Z,83.08
2022-10-18T22:01:46.061Z,83.18
2022-10-18T22:04:19.915Z,83.05
2022-10-18T22:06:47.086Z,82.78
2022-10-18T22:09:14.228Z,82.90
2022-10-18T22:11:53.501Z,83.09
2022-10-18T22:14:28.023Z,83.00
2022-10-18T22:17:10.952Z,83.35
2022-10-18T22:19:44.968Z,83.21
2022-10-18T22:22:20.616Z,83.33
2022-10-18T22:25:09.083Z,83.50
2022-10-18T22:27:38.147Z,83.63
2022-10-18T22:30:09.370Z,83.75
2022-10-18T22:32:50.761Z,83.92
2022-10-18T22:38:58.082Z,83.98
2022-10-18T22:39:47.878Z,84.17
2022-10-18T22:42:36.201Z,83.99
2022-10-18T22:44:50.173Z,83.95
2022-10-18T22:57:07.984Z,83.78
2022-10-18T23:00:42.440Z,84.06
2022-10-18T23:03:19.772Z,84.13
2022-10-18T23:06:12.251Z,84.23
2022-10-18T23:09:28.007Z,84.25
2022-10-18T23:12:09.297Z,84.22
2022-10-18T23:17:38.543Z,84.17
2022-10-18T23:20:06.292Z,83.77
2022-10-18T23:22:35.179Z,83.23
2022-10-18T23:25:05.895Z,82.85
2022-10-18T23:27:36.013Z,82.80
2022-10-18T23:30:03.904Z,82.23
2022-10-18T23:32:31.075Z,81.98
2022-10-18T23:34:58.302Z,81.95
2022-10-18T23:37:27.110Z,81.98
2022-10-18T23:39:54.119Z,81.54
2022-10-18T23:42:21.846Z,81.63
2022-10-18T23:44:51.420Z,81.62
2022-10-18T23:47:24.178Z,81.21
2022-10-18T23:49:55.593Z,80.97
2022-10-18T23:52:22.323Z,80.91
2022-10-18T23:54:49.058Z,80.66
2022-10-18T23:57:15.805Z,80.49
2022-10-18T23:59:42.536Z,80.43
